sensor_id;sensor_type;location;lat;lon;timestamp;temperature;humidity
45096;DHT22;30858;51.108;8.068;2022-11-20T00:03:31;-3.50;99.90
45096;DHT22;30858;51.108;8.068;2022-11-20T00:06:05;-3.50;99.90
45096;DHT22;30858;51.108;8.068;2022-11-20T00:08:31;-3.50;99.90
45096;DHT22;30858;51.108;8.068;2022-11-20T00:10:57;-3.50;99.90
45096;DHT22;30858;51.108;8.068;2022-11-20T00:13:22;-3.60;99.90
45096;DHT22;30858;51.108;8.068;2022-11-20T00:15:48;-3.50;99.90
45096;DHT22;30858;51.108;8.068;2022-11-20T00:18:13;-3.60;99.90
45096;DHT22;30858;51.108;8.068;2022-11-20T00:20:39;-3.60;99.90
45096;DHT22;30858;51.108;8.068;2022-11-20T00:23:05;-3.50;99.90
45096;DHT22;30858;51.108;8.068;2022-11-20T00:25:33;-3.60;99.90
45096;DHT22;30858;51.108;8.068;2022-11-20T00:27:59;-3.70;99.90
45096;DHT22;30858;51.108;8.068;2022-11-20T00:30:25;-3.60;99.90
45096;DHT22;30858;51.108;8.068;2022-11-20T00:32:50;-3.60;99.90
45096;DHT22;30858;51.108;8.068;2022-11-20T00:35:16;-3.60;99.90
45096;DHT22;30858;51.108;8.068;2022-11-20T00:37:41;-3.70;99.90
45096;DHT22;30858;51.108;8.068;2022-11-20T00:40:07;-3.70;99.90
45096;DHT22;30858;51.108;8.068;2022-11-20T00:42:33;-3.60;99.90
45096;DHT22;30858;51.108;8.068;2022-11-20T00:44:59;-3.50;99.90
45096;DHT22;30858;51.108;8.068;2022-11-20T00:47:24;-3.60;99.90
45096;DHT22;30858;51.108;8.068;2022-11-20T00:49:50;-3.50;99.90
45096;DHT22;30858;51.108;8.068;2022-11-20T00:52:15;-3.50;99.90
45096;DHT22;30858;51.108;8.068;2022-11-20T00:54:41;-3.40;99.90
45096;DHT22;30858;51.108;8.068;2022-11-20T00:57:06;-3.40;99.90
45096;DHT22;30858;51.108;8.068;2022-11-20T00:59:32;-3.30;99.90
45096;DHT22;30858;51.108;8.068;2022-11-20T01:01:57;-3.30;99.90
45096;DHT22;30858;51.108;8.068;2022-11-20T01:04:23;-3.30;99.90
45096;DHT22;30858;51.108;8.068;2022-11-20T01:06:48;-3.20;99.90
45096;DHT22;30858;51.108;8.068;2022-11-20T01:09:17;-3.20;99.90
45096;DHT22;30858;51.108;8.068;2022-11-20T01:11:44;-3.20;99.90
45096;DHT22;30858;51.108;8.068;2022-11-20T01:14:13;-3.20;99.90
45096;DHT22;30858;51.108;8.068;2022-11-20T01:16:42;-3.10;99.90
45096;DHT22;30858;51.108;8.068;2022-11-20T01:19:11;-3.10;99.90
45096;DHT22;30858;51.108;8.068;2022-11-20T01:21:40;-3.00;99.90
45096;DHT22;30858;51.108;8.068;2022-11-20T01:24:07;-3.00;99.90
45096;DHT22;30858;51.108;8.068;2022-11-20T01:26:36;-2.90;99.90
45096;DHT22;30858;51.108;8.068;2022-11-20T01:29:03;-2.90;99.90
45096;DHT22;30858;51.108;8.068;2022-11-20T01:31:34;-2.90;99.90
45096;DHT22;30858;51.108;8.068;2022-11-20T01:34:01;-2.80;99.90
45096;DHT22;30858;51.108;8.068;2022-11-20T01:36:29;-2.80;99.90
45096;DHT22;30858;51.108;8.068;2022-11-20T01:39:00;-2.90;99.90
45096;DHT22;30858;51.108;8.068;2022-11-20T01:41:27;-2.90;99.90
45096;DHT22;30858;51.108;8.068;2022-11-20T01:44:14;-2.80;99.90
45096;DHT22;30858;51.108;8.068;2022-11-20T01:46:48;-2.90;99.90
45096;DHT22;30858;51.108;8.068;2022-11-20T01:49:37;-2.90;99.90
45096;DHT22;30858;51.108;8.068;2022-11-20T01:52:14;-2.90;99.90
45096;DHT22;30858;51.108;8.068;2022-11-20T01:55:27;-2.80;99.90
45096;DHT22;30858;51.108;8.068;2022-11-20T01:57:34;-2.70;99.90
45096;DHT22;30858;51.108;8.068;2022-11-20T02:00:08;-2.70;99.90
45096;DHT22;30858;51.108;8.068;2022-11-20T02:02:35;-2.60;99.90
45096;DHT22;30858;51.108;8.068;2022-11-20T02:05:09;-2.60;99.90
45096;DHT22;30858;51.108;8.068;2022-11-20T02:07:37;-2.50;99.90
45096;DHT22;30858;51.108;8.068;2022-11-20T02:10:04;-2.60;99.90
45096;DHT22;30858;51.108;8.068;2022-11-20T02:12:29;-2.60;99.90
45096;DHT22;30858;51.108;8.068;2022-11-20T02:15:13;-2.60;99.90
45096;DHT22;30858;51.108;8.068;2022-11-20T02:17:39;-2.50;99.90
45096;DHT22;30858;51.108;8.068;2022-11-20T02:20:06;-2.50;99.90
45096;DHT22;30858;51.108;8.068;2022-11-20T02:22:38;-2.40;99.90
45096;DHT22;30858;51.108;8.068;2022-11-20T02:25:07;-2.40;99.90
45096;DHT22;30858;51.108;8.068;2022-11-20T02:27:33;-2.30;99.90
45096;DHT22;30858;51.108;8.068;2022-11-20T02:30:04;-2.30;99.90
45096;DHT22;30858;51.108;8.068;2022-11-20T02:32:35;-2.30;99.90
45096;DHT22;30858;51.108;8.068;2022-11-20T02:35:09;-2.30;99.90
45096;DHT22;30858;51.108;8.068;2022-11-20T02:37:37;-2.30;99.90
45096;DHT22;30858;51.108;8.068;2022-11-20T02:40:04;-2.30;99.90
45096;DHT22;30858;51.108;8.068;2022-11-20T02:42:30;-2.20;99.90
45096;DHT22;30858;51.108;8.068;2022-11-20T02:44:55;-2.20;99.90
45096;DHT22;30858;51.108;8.068;2022-11-20T02:47:21;-2.20;99.90
45096;DHT22;30858;51.108;8.068;2022-11-20T02:49:46;-2.30;99.90
45096;DHT22;30858;51.108;8.068;2022-11-20T02:52:12;-2.30;99.90
45096;DHT22;30858;51.108;8.068;2022-11-20T02:54:37;-2.30;99.90
45096;DHT22;30858;51.108;8.068;2022-11-20T02:57:03;-2.30;99.90
45096;DHT22;30858;51.108;8.068;2022-11-20T02:59:28;-2.30;99.90
45096;DHT22;30858;51.108;8.068;2022-11-20T03:01:54;-2.30;99.90
45096;DHT22;30858;51.108;8.068;2022-11-20T03:04:19;-2.30;99.90
45096;DHT22;30858;51.108;8.068;2022-11-20T03:06:45;-2.30;99.90
45096;DHT22;30858;51.108;8.068;2022-11-20T03:09:10;-2.30;99.90
45096;DHT22;30858;51.108;8.068;2022-11-20T03:11:36;-2.30;99.90
45096;DHT22;30858;51.108;8.068;2022-11-20T03:14:03;-2.30;99.90
45096;DHT22;30858;51.108;8.068;2022-11-20T03:16:31;-2.30;99.90
45096;DHT22;30858;51.108;8.068;2022-11-20T03:18:57;-2.30;99.90
45096;DHT22;30858;51.108;8.068;2022-11-20T03:21:22;-2.40;99.90
45096;DHT22;30858;51.108;8.068;2022-11-20T03:23:48;-2.30;99.90
45096;DHT22;30858;51.108;8.068;2022-11-20T03:26:19;-2.20;99.90
45096;DHT22;30858;51.108;8.068;2022-11-20T03:28:50;-2.30;99.90
45096;DHT22;30858;51.108;8.068;2022-11-20T03:31:17;-2.30;99.90
45096;DHT22;30858;51.108;8.068;2022-11-20T03:33:43;-2.30;99.90
45096;DHT22;30858;51.108;8.068;2022-11-20T03:36:11;-2.30;99.90
45096;DHT22;30858;51.108;8.068;2022-11-20T03:38:38;-2.40;99.90
45096;DHT22;30858;51.108;8.068;2022-11-20T03:41:06;-2.30;99.90
45096;DHT22;30858;51.108;8.068;2022-11-20T03:43:32;-2.30;99.90
45096;DHT22;30858;51.108;8.068;2022-11-20T03:45:58;-2.30;99.90
45096;DHT22;30858;51.108;8.068;2022-11-20T03:48:24;-2.20;99.90
45096;DHT22;30858;51.108;8.068;2022-11-20T03:50:51;-2.20;99.90
45096;DHT22;30858;51.108;8.068;2022-11-20T03:53:17;-2.00;99.90
45096;DHT22;30858;51.108;8.068;2022-11-20T03:55:42;-2.00;99.90
45096;DHT22;30858;51.108;8.068;2022-11-20T03:58:09;-2.10;99.90
45096;DHT22;30858;51.108;8.068;2022-11-20T04:00:35;-2.00;99.90
45096;DHT22;30858;51.108;8.068;2022-11-20T04:03:01;-2.00;99.90
45096;DHT22;30858;51.108;8.068;2022-11-20T04:05:27;-2.10;99.90
45096;DHT22;30858;51.108;8.068;2022-11-20T04:07:53;-2.20;99.90
45096;DHT22;30858;51.108;8.068;2022-11-20T04:10:18;-2.10;99.90
45096;DHT22;30858;51.108;8.068;2022-11-20T04:12:44;-2.10;99.90
45096;DHT22;30858;51.108;8.068;2022-11-20T04:15:10;-2.10;99.90
45096;DHT22;30858;51.108;8.068;2022-11-20T04:17:35;-2.10;99.90
45096;DHT22;30858;51.108;8.068;2022-11-20T04:20:02;-2.00;99.90
45096;DHT22;30858;51.108;8.068;2022-11-20T04:22:28;-2.00;99.90
45096;DHT22;30858;51.108;8.068;2022-11-20T04:24:53;-2.10;99.90
45096;DHT22;30858;51.108;8.068;2022-11-20T04:27:19;-2.00;99.90
45096;DHT22;30858;51.108;8.068;2022-11-20T04:29:44;-2.20;99.90
45096;DHT22;30858;51.108;8.068;2022-11-20T04:32:10;-2.10;99.90
45096;DHT22;30858;51.108;8.068;2022-11-20T04:34:35;-2.10;99.90
45096;DHT22;30858;51.108;8.068;2022-11-20T04:37:01;-2.10;99.90
45096;DHT22;30858;51.108;8.068;2022-11-20T04:39:26;-2.00;99.90
45096;DHT22;30858;51.108;8.068;2022-11-20T04:41:52;-2.00;99.90
45096;DHT22;30858;51.108;8.068;2022-11-20T04:44:38;-2.00;99.90
45096;DHT22;30858;51.108;8.068;2022-11-20T04:47:03;-1.90;99.90
45096;DHT22;30858;51.108;8.068;2022-11-20T04:49:29;-2.00;99.90
45096;DHT22;30858;51.108;8.068;2022-11-20T04:51:54;-2.00;99.90
45096;DHT22;30858;51.108;8.068;2022-11-20T04:54:20;-1.90;99.90
45096;DHT22;30858;51.108;8.068;2022-11-20T04:56:49;-1.90;99.90
45096;DHT22;30858;51.108;8.068;2022-11-20T04:59:15;-1.90;99.90
45096;DHT22;30858;51.108;8.068;2022-11-20T05:01:40;-1.90;99.90
45096;DHT22;30858;51.108;8.068;2022-11-20T05:04:06;-1.90;99.90
45096;DHT22;30858;51.108;8.068;2022-11-20T05:06:32;-1.90;99.90
45096;DHT22;30858;51.108;8.068;2022-11-20T05:08:57;-1.80;99.90
45096;DHT22;30858;51.108;8.068;2022-11-20T05:11:24;-1.80;99.90
45096;DHT22;30858;51.108;8.068;2022-11-20T05:13:51;-1.70;99.90
45096;DHT22;30858;51.108;8.068;2022-11-20T05:16:24;-1.70;99.90
45096;DHT22;30858;51.108;8.068;2022-11-20T05:18:51;-1.60;99.90
45096;DHT22;30858;51.108;8.068;2022-11-20T05:21:17;-1.60;99.90
45096;DHT22;30858;51.108;8.068;2022-11-20T05:23:44;-1.60;99.90
45096;DHT22;30858;51.108;8.068;2022-11-20T05:26:15;-1.60;99.90
45096;DHT22;30858;51.108;8.068;2022-11-20T05:28:42;-1.60;99.90
45096;DHT22;30858;51.108;8.068;2022-11-20T05:31:09;-1.60;99.90
45096;DHT22;30858;51.108;8.068;2022-11-20T05:33:35;-1.60;99.90
45096;DHT22;30858;51.108;8.068;2022-11-20T05:36:03;-1.50;99.90
45096;DHT22;30858;51.108;8.068;2022-11-20T05:38:29;-1.60;99.90
45096;DHT22;30858;51.108;8.068;2022-11-20T05:40:54;-1.50;99.90
45096;DHT22;30858;51.108;8.068;2022-11-20T05:43:20;-1.40;99.90
45096;DHT22;30858;51.108;8.068;2022-11-20T05:45:54;-1.50;99.90
45096;DHT22;30858;51.108;8.068;2022-11-20T05:48:20;-1.50;99.90
45096;DHT22;30858;51.108;8.068;2022-11-20T05:50:47;-1.40;99.90
45096;DHT22;30858;51.108;8.068;2022-11-20T05:53:12;-1.40;99.90
45096;DHT22;30858;51.108;8.068;2022-11-20T05:55:38;-1.40;99.90
45096;DHT22;30858;51.108;8.068;2022-11-20T05:58:03;-1.40;99.90
45096;DHT22;30858;51.108;8.068;2022-11-20T06:00:29;-1.40;99.90
45096;DHT22;30858;51.108;8.068;2022-11-20T06:02:54;-1.40;99.90
45096;DHT22;30858;51.108;8.068;2022-11-20T06:05:20;-1.40;99.90
45096;DHT22;30858;51.108;8.068;2022-11-20T06:07:45;-1.30;99.90
45096;DHT22;30858;51.108;8.068;2022-11-20T06:10:11;-1.30;99.90
45096;DHT22;30858;51.108;8.068;2022-11-20T06:12:37;-1.30;99.90
45096;DHT22;30858;51.108;8.068;2022-11-20T06:15:03;-1.20;99.90
45096;DHT22;30858;51.108;8.068;2022-11-20T06:17:29;-1.20;99.90
45096;DHT22;30858;51.108;8.068;2022-11-20T06:19:55;-1.20;99.90
45096;DHT22;30858;51.108;8.068;2022-11-20T06:22:20;-1.10;99.90
45096;DHT22;30858;51.108;8.068;2022-11-20T06:24:46;-1.10;99.90
45096;DHT22;30858;51.108;8.068;2022-11-20T06:27:11;-1.00;99.90
45096;DHT22;30858;51.108;8.068;2022-11-20T06:29:37;-1.10;99.90
45096;DHT22;30858;51.108;8.068;2022-11-20T06:32:02;-1.10;99.90
45096;DHT22;30858;51.108;8.068;2022-11-20T06:34:28;-1.10;99.90
45096;DHT22;30858;51.108;8.068;2022-11-20T06:36:53;-1.10;99.90
45096;DHT22;30858;51.108;8.068;2022-11-20T06:39:19;-1.20;99.90
45096;DHT22;30858;51.108;8.068;2022-11-20T06:41:44;-1.10;99.90
45096;DHT22;30858;51.108;8.068;2022-11-20T06:44:10;-1.10;99.90
45096;DHT22;30858;51.108;8.068;2022-11-20T06:46:35;-1.10;99.90
45096;DHT22;30858;51.108;8.068;2022-11-20T06:49:01;-1.10;99.90
45096;DHT22;30858;51.108;8.068;2022-11-20T06:51:26;-1.00;99.90
45096;DHT22;30858;51.108;8.068;2022-11-20T06:53:52;-1.00;99.90
45096;DHT22;30858;51.108;8.068;2022-11-20T06:56:18;-1.00;99.90
45096;DHT22;30858;51.108;8.068;2022-11-20T06:58:44;-0.90;99.90
45096;DHT22;30858;51.108;8.068;2022-11-20T07:01:11;-0.90;99.90
45096;DHT22;30858;51.108;8.068;2022-11-20T07:03:38;-0.90;99.90
45096;DHT22;30858;51.108;8.068;2022-11-20T07:06:04;-0.90;99.90
45096;DHT22;30858;51.108;8.068;2022-11-20T07:08:29;-0.80;99.90
45096;DHT22;30858;51.108;8.068;2022-11-20T07:11:00;-0.80;99.90
45096;DHT22;30858;51.108;8.068;2022-11-20T07:13:29;-0.80;99.90
45096;DHT22;30858;51.108;8.068;2022-11-20T07:15:55;-0.80;99.90
45096;DHT22;30858;51.108;8.068;2022-11-20T07:18:24;-0.70;99.90
45096;DHT22;30858;51.108;8.068;2022-11-20T07:20:49;-0.70;99.90
45096;DHT22;30858;51.108;8.068;2022-11-20T07:23:15;-0.70;99.90
45096;DHT22;30858;51.108;8.068;2022-11-20T07:25:40;-0.80;99.90
45096;DHT22;30858;51.108;8.068;2022-11-20T07:28:06;-0.80;99.90
45096;DHT22;30858;51.108;8.068;2022-11-20T07:30:31;-0.80;99.90
45096;DHT22;30858;51.108;8.068;2022-11-20T07:32:57;-0.70;99.90
45096;DHT22;30858;51.108;8.068;2022-11-20T07:35:26;-0.80;99.90
45096;DHT22;30858;51.108;8.068;2022-11-20T07:37:51;-0.80;99.90
45096;DHT22;30858;51.108;8.068;2022-11-20T07:40:17;-0.70;99.90
45096;DHT22;30858;51.108;8.068;2022-11-20T07:42:54;-0.70;99.90
45096;DHT22;30858;51.108;8.068;2022-11-20T07:45:21;-0.70;99.90
45096;DHT22;30858;51.108;8.068;2022-11-20T07:47:47;-0.70;99.90
45096;DHT22;30858;51.108;8.068;2022-11-20T07:50:14;-0.70;99.90
45096;DHT22;30858;51.108;8.068;2022-11-20T07:52:40;-0.60;99.90
45096;DHT22;30858;51.108;8.068;2022-11-20T07:55:06;-0.60;99.90
45096;DHT22;30858;51.108;8.068;2022-11-20T07:57:32;-0.50;99.90
45096;DHT22;30858;51.108;8.068;2022-11-20T07:59:57;-0.50;99.90
45096;DHT22;30858;51.108;8.068;2022-11-20T08:02:23;-0.50;99.90
45096;DHT22;30858;51.108;8.068;2022-11-20T08:04:48;-0.50;99.90
45096;DHT22;30858;51.108;8.068;2022-11-20T08:07:14;-0.50;99.90
45096;DHT22;30858;51.108;8.068;2022-11-20T08:09:39;-0.50;99.90
45096;DHT22;30858;51.108;8.068;2022-11-20T08:12:05;-0.50;99.90
45096;DHT22;30858;51.108;8.068;2022-11-20T08:14:49;-0.40;99.90
45096;DHT22;30858;51.108;8.068;2022-11-20T08:17:15;-0.30;99.90
45096;DHT22;30858;51.108;8.068;2022-11-20T08:19:41;-0.30;99.90
45096;DHT22;30858;51.108;8.068;2022-11-20T08:22:06;-0.30;99.90
45096;DHT22;30858;51.108;8.068;2022-11-20T08:24:32;-0.20;99.90
45096;DHT22;30858;51.108;8.068;2022-11-20T08:26:58;-0.20;99.90
45096;DHT22;30858;51.108;8.068;2022-11-20T08:29:27;-0.10;99.90
45096;DHT22;30858;51.108;8.068;2022-11-20T08:31:52;-0.20;99.90
45096;DHT22;30858;51.108;8.068;2022-11-20T08:34:18;-0.20;99.90
45096;DHT22;30858;51.108;8.068;2022-11-20T08:36:43;-0.20;99.90
45096;DHT22;30858;51.108;8.068;2022-11-20T08:39:11;-0.10;99.90
45096;DHT22;30858;51.108;8.068;2022-11-20T08:41:37;-0.10;99.90
45096;DHT22;30858;51.108;8.068;2022-11-20T08:44:04;-0.10;99.90
45096;DHT22;30858;51.108;8.068;2022-11-20T08:46:35;0.00;99.90
45096;DHT22;30858;51.108;8.068;2022-11-20T08:49:03;0.10;99.90
45096;DHT22;30858;51.108;8.068;2022-11-20T08:51:29;0.10;99.90
45096;DHT22;30858;51.108;8.068;2022-11-20T08:53:54;0.20;99.90
45096;DHT22;30858;51.108;8.068;2022-11-20T08:56:20;0.20;99.90
45096;DHT22;30858;51.108;8.068;2022-11-20T08:58:45;0.30;99.90
45096;DHT22;30858;51.108;8.068;2022-11-20T09:01:11;0.30;99.90
45096;DHT22;30858;51.108;8.068;2022-11-20T09:03:37;0.30;99.90
45096;DHT22;30858;51.108;8.068;2022-11-20T09:06:05;0.30;99.90
45096;DHT22;30858;51.108;8.068;2022-11-20T09:08:31;0.40;99.90
45096;DHT22;30858;51.108;8.068;2022-11-20T09:10:57;0.40;99.90
45096;DHT22;30858;51.108;8.068;2022-11-20T09:13:24;0.40;99.90
45096;DHT22;30858;51.108;8.068;2022-11-20T09:15:55;0.40;99.90
45096;DHT22;30858;51.108;8.068;2022-11-20T09:18:21;0.50;99.90
45096;DHT22;30858;51.108;8.068;2022-11-20T09:20:47;0.50;99.90
45096;DHT22;30858;51.108;8.068;2022-11-20T09:23:13;0.60;99.90
45096;DHT22;30858;51.108;8.068;2022-11-20T09:25:38;0.70;99.90
45096;DHT22;30858;51.108;8.068;2022-11-20T09:28:04;0.70;99.90
45096;DHT22;30858;51.108;8.068;2022-11-20T09:30:29;0.80;99.90
45096;DHT22;30858;51.108;8.068;2022-11-20T09:32:56;0.80;99.90
45096;DHT22;30858;51.108;8.068;2022-11-20T09:35:22;1.00;99.90
45096;DHT22;30858;51.108;8.068;2022-11-20T09:37:47;1.10;99.90
45096;DHT22;30858;51.108;8.068;2022-11-20T09:40:25;1.20;99.90
45096;DHT22;30858;51.108;8.068;2022-11-20T09:43:07;1.30;99.90
45096;DHT22;30858;51.108;8.068;2022-11-20T09:51:34;1.40;99.90
45096;DHT22;30858;51.108;8.068;2022-11-20T09:54:21;1.50;99.90
45096;DHT22;30858;51.108;8.068;2022-11-20T09:56:58;1.60;99.90
45096;DHT22;30858;51.108;8.068;2022-11-20T10:01:54;1.60;99.90
45096;DHT22;30858;51.108;8.068;2022-11-20T10:04:20;1.70;99.90
45096;DHT22;30858;51.108;8.068;2022-11-20T10:07:16;2.00;99.90
45096;DHT22;30858;51.108;8.068;2022-11-20T10:09:51;2.80;99.90
45096;DHT22;30858;51.108;8.068;2022-11-20T10:20:30;3.90;99.90
45096;DHT22;30858;51.108;8.068;2022-11-20T10:23:21;3.50;99.90
45096;DHT22;30858;51.108;8.068;2022-11-20T10:28:39;3.10;99.90
45096;DHT22;30858;51.108;8.068;2022-11-20T10:31:17;3.10;99.90
45096;DHT22;30858;51.108;8.068;2022-11-20T10:33:48;2.90;99.90
45096;DHT22;30858;51.108;8.068;2022-11-20T10:36:22;2.80;99.90
45096;DHT22;30858;51.108;8.068;2022-11-20T10:38:58;2.90;99.90
45096;DHT22;30858;51.108;8.068;2022-11-20T10:41:41;3.10;99.90
45096;DHT22;30858;51.108;8.068;2022-11-20T10:44:15;2.90;99.90
45096;DHT22;30858;51.108;8.068;2022-11-20T10:47:02;2.80;99.90
45096;DHT22;30858;51.108;8.068;2022-11-20T10:49:30;2.80;99.90
45096;DHT22;30858;51.108;8.068;2022-11-20T10:52:04;2.70;99.90
45096;DHT22;30858;51.108;8.068;2022-11-20T11:00:16;2.70;99.90
45096;DHT22;30858;51.108;8.068;2022-11-20T11:02:53;2.80;99.90
45096;DHT22;30858;51.108;8.068;2022-11-20T11:07:48;2.90;99.90
45096;DHT22;30858;51.108;8.068;2022-11-20T11:10:24;2.90;99.90
45096;DHT22;30858;51.108;8.068;2022-11-20T11:12:51;3.00;99.90
45096;DHT22;30858;51.108;8.068;2022-11-20T11:15:40;2.90;99.90
45096;DHT22;30858;51.108;8.068;2022-11-20T11:18:10;2.90;99.90
45096;DHT22;30858;51.108;8.068;2022-11-20T11:20:36;2.90;99.90
45096;DHT22;30858;51.108;8.068;2022-11-20T11:23:03;2.70;99.90
45096;DHT22;30858;51.108;8.068;2022-11-20T11:25:36;2.70;99.90
45096;DHT22;30858;51.108;8.068;2022-11-20T11:28:05;2.90;99.90
45096;DHT22;30858;51.108;8.068;2022-11-20T11:30:44;2.70;99.90
45096;DHT22;30858;51.108;8.068;2022-11-20T11:33:18;2.90;99.90
45096;DHT22;30858;51.108;8.068;2022-11-20T11:35:50;2.90;99.90
45096;DHT22;30858;51.108;8.068;2022-11-20T11:38:36;2.90;99.90
45096;DHT22;30858;51.108;8.068;2022-11-20T11:41:04;3.00;99.90
45096;DHT22;30858;51.108;8.068;2022-11-20T11:43:36;2.90;99.90
45096;DHT22;30858;51.108;8.068;2022-11-20T11:46:35;3.00;99.90
45096;DHT22;30858;51.108;8.068;2022-11-20T11:51:56;3.30;99.90
45096;DHT22;30858;51.108;8.068;2022-11-20T11:57:03;3.40;99.90
45096;DHT22;30858;51.108;8.068;2022-11-20T12:00:13;3.40;99.90
45096;DHT22;30858;51.108;8.068;2022-11-20T12:05:24;3.10;99.90
45096;DHT22;30858;51.108;8.068;2022-11-20T12:08:05;3.30;99.90
45096;DHT22;30858;51.108;8.068;2022-11-20T12:10:39;3.30;99.90
45096;DHT22;30858;51.108;8.068;2022-11-20T12:16:13;3.50;99.90
45096;DHT22;30858;51.108;8.068;2022-11-20T12:18:40;3.60;99.90
45096;DHT22;30858;51.108;8.068;2022-11-20T12:30:01;3.50;99.90
45096;DHT22;30858;51.108;8.068;2022-11-20T12:50:49;3.60;99.90
45096;DHT22;30858;51.108;8.068;2022-11-20T13:05:59;3.40;99.90
45096;DHT22;30858;51.108;8.068;2022-11-20T13:08:33;3.50;99.90
45096;DHT22;30858;51.108;8.068;2022-11-20T13:11:01;3.50;99.90
45096;DHT22;30858;51.108;8.068;2022-11-20T13:16:43;3.30;99.90
45096;DHT22;30858;51.108;8.068;2022-11-20T13:19:15;3.30;99.90
45096;DHT22;30858;51.108;8.068;2022-11-20T13:21:43;3.40;99.90
45096;DHT22;30858;51.108;8.068;2022-11-20T13:29:29;3.30;99.90
45096;DHT22;30858;51.108;8.068;2022-11-20T13:32:11;3.30;99.90
45096;DHT22;30858;51.108;8.068;2022-11-20T13:34:38;3.40;99.90
45096;DHT22;30858;51.108;8.068;2022-11-20T13:37:04;3.40;99.90
45096;DHT22;30858;51.108;8.068;2022-11-20T13:39:34;3.50;99.90
45096;DHT22;30858;51.108;8.068;2022-11-20T13:42:22;3.50;99.90
45096;DHT22;30858;51.108;8.068;2022-11-20T13:44:54;3.50;99.90
45096;DHT22;30858;51.108;8.068;2022-11-20T13:47:23;3.40;99.90
45096;DHT22;30858;51.108;8.068;2022-11-20T13:49:49;3.40;99.90
45096;DHT22;30858;51.108;8.068;2022-11-20T14:00:16;3.40;99.90
45096;DHT22;30858;51.108;8.068;2022-11-20T14:02:44;3.40;99.90
45096;DHT22;30858;51.108;8.068;2022-11-20T14:05:22;3.40;99.90
45096;DHT22;30858;51.108;8.068;2022-11-20T14:07:49;3.40;99.90
45096;DHT22;30858;51.108;8.068;2022-11-20T14:10:33;3.40;99.90
45096;DHT22;30858;51.108;8.068;2022-11-20T14:13:11;3.40;99.90
45096;DHT22;30858;51.108;8.068;2022-11-20T14:15:40;3.30;99.90
45096;DHT22;30858;51.108;8.068;2022-11-20T14:18:19;3.30;99.90
45096;DHT22;30858;51.108;8.068;2022-11-20T14:20:47;3.40;99.90
45096;DHT22;30858;51.108;8.068;2022-11-20T14:23:27;3.40;99.90
45096;DHT22;30858;51.108;8.068;2022-11-20T14:25:52;3.40;99.90
45096;DHT22;30858;51.108;8.068;2022-11-20T14:28:25;3.40;99.90
45096;DHT22;30858;51.108;8.068;2022-11-20T14:30:51;3.40;99.90
45096;DHT22;30858;51.108;8.068;2022-11-20T14:33:17;3.40;99.90
45096;DHT22;30858;51.108;8.068;2022-11-20T14:35:47;3.30;99.90
45096;DHT22;30858;51.108;8.068;2022-11-20T14:38:15;3.40;99.90
45096;DHT22;30858;51.108;8.068;2022-11-20T14:40:42;3.30;99.90
45096;DHT22;30858;51.108;8.068;2022-11-20T14:43:26;3.30;99.90
45096;DHT22;30858;51.108;8.068;2022-11-20T14:46:02;3.30;99.90
45096;DHT22;30858;51.108;8.068;2022-11-20T14:48:48;3.20;99.90
45096;DHT22;30858;51.108;8.068;2022-11-20T14:51:34;3.30;99.90
45096;DHT22;30858;51.108;8.068;2022-11-20T14:54:19;3.30;99.90
45096;DHT22;30858;51.108;8.068;2022-11-20T14:57:00;3.30;99.90
45096;DHT22;30858;51.108;8.068;2022-11-20T14:59:37;3.20;99.90
45096;DHT22;30858;51.108;8.068;2022-11-20T15:02:09;3.20;99.90
45096;DHT22;30858;51.108;8.068;2022-11-20T15:04:50;3.30;99.90
45096;DHT22;30858;51.108;8.068;2022-11-20T15:07:32;3.30;99.90
45096;DHT22;30858;51.108;8.068;2022-11-20T15:10:25;3.30;99.90
45096;DHT22;30858;51.108;8.068;2022-11-20T15:12:52;3.30;99.90
45096;DHT22;30858;51.108;8.068;2022-11-20T15:15:27;3.20;99.90
45096;DHT22;30858;51.108;8.068;2022-11-20T15:17:55;3.20;99.90
45096;DHT22;30858;51.108;8.068;2022-11-20T15:20:25;3.10;99.90
45096;DHT22;30858;51.108;8.068;2022-11-20T15:22:51;3.10;99.90
45096;DHT22;30858;51.108;8.068;2022-11-20T15:25:18;3.10;99.90
45096;DHT22;30858;51.108;8.068;2022-11-20T15:27:44;3.10;99.90
45096;DHT22;30858;51.108;8.068;2022-11-20T15:30:18;3.10;99.90
45096;DHT22;30858;51.108;8.068;2022-11-20T15:32:45;3.10;99.90
45096;DHT22;30858;51.108;8.068;2022-11-20T15:35:12;3.10;99.90
45096;DHT22;30858;51.108;8.068;2022-11-20T15:37:38;3.00;99.90
45096;DHT22;30858;51.108;8.068;2022-11-20T15:40:05;3.00;99.90
45096;DHT22;30858;51.108;8.068;2022-11-20T15:42:31;3.00;99.90
45096;DHT22;30858;51.108;8.068;2022-11-20T15:44:56;3.00;99.90
45096;DHT22;30858;51.108;8.068;2022-11-20T15:47:26;2.90;99.90
45096;DHT22;30858;51.108;8.068;2022-11-20T15:49:53;2.90;99.90
45096;DHT22;30858;51.108;8.068;2022-11-20T15:52:18;2.80;99.90
45096;DHT22;30858;51.108;8.068;2022-11-20T15:54:44;2.90;99.90
45096;DHT22;30858;51.108;8.068;2022-11-20T15:57:09;2.90;99.90
45096;DHT22;30858;51.108;8.068;2022-11-20T15:59:35;2.90;99.90
45096;DHT22;30858;51.108;8.068;2022-11-20T16:02:09;2.90;99.90
45096;DHT22;30858;51.108;8.068;2022-11-20T16:04:35;2.90;99.90
45096;DHT22;30858;51.108;8.068;2022-11-20T16:07:01;3.00;99.90
45096;DHT22;30858;51.108;8.068;2022-11-20T16:09:26;3.00;99.90
45096;DHT22;30858;51.108;8.068;2022-11-20T16:11:52;3.00;99.90
45096;DHT22;30858;51.108;8.068;2022-11-20T16:14:18;3.00;99.90
45096;DHT22;30858;51.108;8.068;2022-11-20T16:17:02;3.00;99.90
45096;DHT22;30858;51.108;8.068;2022-11-20T16:19:29;2.90;99.90
45096;DHT22;30858;51.108;8.068;2022-11-20T16:21:57;2.90;99.90
45096;DHT22;30858;51.108;8.068;2022-11-20T16:24:36;2.90;99.90
45096;DHT22;30858;51.108;8.068;2022-11-20T16:27:02;2.90;99.90
45096;DHT22;30858;51.108;8.068;2022-11-20T16:29:31;2.90;99.90
45096;DHT22;30858;51.108;8.068;2022-11-20T16:31:58;3.00;99.90
45096;DHT22;30858;51.108;8.068;2022-11-20T16:34:24;2.90;99.90
45096;DHT22;30858;51.108;8.068;2022-11-20T16:36:49;2.90;99.90
45096;DHT22;30858;51.108;8.068;2022-11-20T16:39:15;2.90;99.90
45096;DHT22;30858;51.108;8.068;2022-11-20T16:41:41;2.90;99.90
45096;DHT22;30858;51.108;8.068;2022-11-20T16:44:09;2.90;99.90
45096;DHT22;30858;51.108;8.068;2022-11-20T16:46:35;2.80;99.90
45096;DHT22;30858;51.108;8.068;2022-11-20T16:49:05;2.80;99.90
45096;DHT22;30858;51.108;8.068;2022-11-20T16:51:34;2.80;99.90
45096;DHT22;30858;51.108;8.068;2022-11-20T16:54:04;2.80;99.90
45096;DHT22;30858;51.108;8.068;2022-11-20T16:56:30;2.80;99.90
45096;DHT22;30858;51.108;8.068;2022-11-20T16:58:57;2.80;99.90
45096;DHT22;30858;51.108;8.068;2022-11-20T17:01:24;2.90;99.90
45096;DHT22;30858;51.108;8.068;2022-11-20T17:04:08;2.80;99.90
45096;DHT22;30858;51.108;8.068;2022-11-20T17:06:36;2.80;99.90
45096;DHT22;30858;51.108;8.068;2022-11-20T17:09:03;2.90;99.90
45096;DHT22;30858;51.108;8.068;2022-11-20T17:11:29;2.90;99.90
45096;DHT22;30858;51.108;8.068;2022-11-20T17:13:56;2.80;99.90
45096;DHT22;30858;51.108;8.068;2022-11-20T17:16:23;2.80;99.90
45096;DHT22;30858;51.108;8.068;2022-11-20T17:18:49;2.90;99.90
45096;DHT22;30858;51.108;8.068;2022-11-20T17:21:16;2.90;99.90
45096;DHT22;30858;51.108;8.068;2022-11-20T17:23:42;2.90;99.90
45096;DHT22;30858;51.108;8.068;2022-11-20T17:26:11;2.90;99.90